sensor_id;sensor_type;location;lat;lon;timestamp;P1;durP1;ratioP1;P2;durP2;ratioP2
78856;SDS011;68207;50.078;19.936;2023-06-24T00:01:19;9.30;;;5.70;;
78856;SDS011;68207;50.078;19.936;2023-06-24T00:03:45;8.00;;;5.50;;
78856;SDS011;68207;50.078;19.936;2023-06-24T00:06:12;5.80;;;5.20;;
78856;SDS011;68207;50.078;19.936;2023-06-24T00:08:43;7.60;;;5.30;;
78856;SDS011;68207;50.078;19.936;2023-06-24T00:11:08;5.10;;;4.40;;
78856;SDS011;68207;50.078;19.936;2023-06-24T00:13:33;7.20;;;4.50;;
78856;SDS011;68207;50.078;19.936;2023-06-24T00:15:58;8.00;;;4.10;;
78856;SDS011;68207;50.078;19.936;2023-06-24T00:18:23;8.40;;;4.80;;
78856;SDS011;68207;50.078;19.936;2023-06-24T00:20:49;8.00;;;4.70;;
78856;SDS011;68207;50.078;19.936;2023-06-24T00:23:15;6.50;;;4.20;;
78856;SDS011;68207;50.078;19.936;2023-06-24T00:25:42;6.60;;;4.70;;
78856;SDS011;68207;50.078;19.936;2023-06-24T00:28:07;6.20;;;4.90;;
78856;SDS011;68207;50.078;19.936;2023-06-24T00:30:32;6.80;;;4.70;;
78856;SDS011;68207;50.078;19.936;2023-06-24T00:32:58;7.20;;;4.90;;
78856;SDS011;68207;50.078;19.936;2023-06-24T00:35:23;6.10;;;4.70;;
78856;SDS011;68207;50.078;19.936;2023-06-24T00:37:48;7.10;;;4.70;;
78856;SDS011;68207;50.078;19.936;2023-06-24T00:40:14;5.40;;;4.50;;
78856;SDS011;68207;50.078;19.936;2023-06-24T00:42:41;6.80;;;4.90;;
78856;SDS011;68207;50.078;19.936;2023-06-24T00:45:07;6.60;;;4.80;;
78856;SDS011;68207;50.078;19.936;2023-06-24T00:52:23;5.90;;;4.30;;
78856;SDS011;68207;50.078;19.936;2023-06-24T00:54:48;6.80;;;4.80;;
78856;SDS011;68207;50.078;19.936;2023-06-24T00:57:14;6.90;;;4.40;;
78856;SDS011;68207;50.078;19.936;2023-06-24T00:59:39;7.70;;;4.30;;
78856;SDS011;68207;50.078;19.936;2023-06-24T01:02:05;5.90;;;4.60;;
78856;SDS011;68207;50.078;19.936;2023-06-24T01:04:31;6.50;;;4.50;;
78856;SDS011;68207;50.078;19.936;2023-06-24T01:06:58;6.60;;;4.20;;
78856;SDS011;68207;50.078;19.936;2023-06-24T01:09:23;7.40;;;4.70;;
78856;SDS011;68207;50.078;19.936;2023-06-24T01:11:49;7.30;;;4.70;;
78856;SDS011;68207;50.078;19.936;2023-06-24T01:14:14;8.00;;;4.80;;
78856;SDS011;68207;50.078;19.936;2023-06-24T01:19:33;6.10;;;4.60;;
78856;SDS011;68207;50.078;19.936;2023-06-24T01:22:07;7.60;;;4.80;;
78856;SDS011;68207;50.078;19.936;2023-06-24T01:30:14;7.10;;;4.20;;
78856;SDS011;68207;50.078;19.936;2023-06-24T01:32:44;10.10;;;4.50;;
78856;SDS011;68207;50.078;19.936;2023-06-24T01:35:13;6.90;;;4.80;;
78856;SDS011;68207;50.078;19.936;2023-06-24T01:37:41;6.10;;;4.70;;
78856;SDS011;68207;50.078;19.936;2023-06-24T01:40:21;7.10;;;5.00;;
78856;SDS011;68207;50.078;19.936;2023-06-24T01:42:47;7.60;;;5.10;;
78856;SDS011;68207;50.078;19.936;2023-06-24T01:45:15;7.30;;;5.00;;
78856;SDS011;68207;50.078;19.936;2023-06-24T01:47:42;5.50;;;4.30;;
78856;SDS011;68207;50.078;19.936;2023-06-24T01:50:09;7.50;;;4.70;;
78856;SDS011;68207;50.078;19.936;2023-06-24T01:52:35;9.30;;;5.20;;
78856;SDS011;68207;50.078;19.936;2023-06-24T01:55:01;6.50;;;4.60;;
78856;SDS011;68207;50.078;19.936;2023-06-24T01:57:28;6.90;;;4.80;;
78856;SDS011;68207;50.078;19.936;2023-06-24T01:59:55;6.60;;;4.80;;
78856;SDS011;68207;50.078;19.936;2023-06-24T02:02:20;6.40;;;4.30;;
78856;SDS011;68207;50.078;19.936;2023-06-24T02:04:46;8.50;;;4.70;;
78856;SDS011;68207;50.078;19.936;2023-06-24T02:14:28;5.60;;;4.30;;
78856;SDS011;68207;50.078;19.936;2023-06-24T02:16:54;6.20;;;4.50;;
78856;SDS011;68207;50.078;19.936;2023-06-24T02:19:24;6.90;;;4.10;;
78856;SDS011;68207;50.078;19.936;2023-06-24T02:21:50;5.90;;;4.60;;
78856;SDS011;68207;50.078;19.936;2023-06-24T02:24:17;6.20;;;4.90;;
78856;SDS011;68207;50.078;19.936;2023-06-24T02:26:42;6.50;;;4.20;;
78856;SDS011;68207;50.078;19.936;2023-06-24T02:29:08;7.20;;;5.00;;
78856;SDS011;68207;50.078;19.936;2023-06-24T02:31:34;8.80;;;4.70;;
78856;SDS011;68207;50.078;19.936;2023-06-24T02:33:59;6.90;;;4.70;;
78856;SDS011;68207;50.078;19.936;2023-06-24T02:36:24;9.10;;;4.50;;
78856;SDS011;68207;50.078;19.936;2023-06-24T02:38:50;5.90;;;4.50;;
78856;SDS011;68207;50.078;19.936;2023-06-24T02:41:15;6.30;;;4.80;;
78856;SDS011;68207;50.078;19.936;2023-06-24T02:43:40;8.70;;;5.20;;
78856;SDS011;68207;50.078;19.936;2023-06-24T02:46:05;6.60;;;5.00;;
78856;SDS011;68207;50.078;19.936;2023-06-24T03:03:03;5.90;;;4.90;;
78856;SDS011;68207;50.078;19.936;2023-06-24T03:05:29;8.30;;;4.60;;
78856;SDS011;68207;50.078;19.936;2023-06-24T03:07:55;8.40;;;4.80;;
78856;SDS011;68207;50.078;19.936;2023-06-24T03:10:22;5.60;;;4.20;;
78856;SDS011;68207;50.078;19.936;2023-06-24T03:12:48;6.70;;;4.50;;
78856;SDS011;68207;50.078;19.936;2023-06-24T03:15:13;4.90;;;4.40;;
78856;SDS011;68207;50.078;19.936;2023-06-24T03:17:38;8.40;;;4.90;;
78856;SDS011;68207;50.078;19.936;2023-06-24T03:20:04;7.00;;;4.30;;
78856;SDS011;68207;50.078;19.936;2023-06-24T03:22:29;5.60;;;4.30;;
78856;SDS011;68207;50.078;19.936;2023-06-24T03:24:55;6.30;;;4.10;;
78856;SDS011;68207;50.078;19.936;2023-06-24T03:27:20;5.80;;;4.10;;
78856;SDS011;68207;50.078;19.936;2023-06-24T03:29:46;4.90;;;4.20;;
78856;SDS011;68207;50.078;19.936;2023-06-24T03:32:11;5.60;;;4.10;;
78856;SDS011;68207;50.078;19.936;2023-06-24T03:34:36;4.30;;;3.90;;
78856;SDS011;68207;50.078;19.936;2023-06-24T03:37:01;5.90;;;3.90;;
78856;SDS011;68207;50.078;19.936;2023-06-24T03:39:29;5.20;;;4.20;;
78856;SDS011;68207;50.078;19.936;2023-06-24T03:41:54;6.10;;;4.20;;
78856;SDS011;68207;50.078;19.936;2023-06-24T03:44:19;7.30;;;4.10;;
78856;SDS011;68207;50.078;19.936;2023-06-24T03:46:45;4.30;;;3.70;;
78856;SDS011;68207;50.078;19.936;2023-06-24T03:49:10;5.40;;;4.20;;
78856;SDS011;68207;50.078;19.936;2023-06-24T03:51:35;5.20;;;3.60;;
78856;SDS011;68207;50.078;19.936;2023-06-24T03:54:01;6.00;;;3.90;;
78856;SDS011;68207;50.078;19.936;2023-06-24T03:56:26;5.90;;;4.10;;
78856;SDS011;68207;50.078;19.936;2023-06-24T03:58:51;5.10;;;3.80;;
78856;SDS011;68207;50.078;19.936;2023-06-24T04:01:16;5.20;;;3.70;;
78856;SDS011;68207;50.078;19.936;2023-06-24T04:03:45;4.30;;;3.60;;
78856;SDS011;68207;50.078;19.936;2023-06-24T04:06:10;5.60;;;4.10;;
78856;SDS011;68207;50.078;19.936;2023-06-24T04:08:35;7.50;;;3.50;;
78856;SDS011;68207;50.078;19.936;2023-06-24T04:11:04;7.60;;;3.30;;
78856;SDS011;68207;50.078;19.936;2023-06-24T04:13:30;6.50;;;4.00;;
78856;SDS011;68207;50.078;19.936;2023-06-24T04:15:55;4.40;;;3.90;;
78856;SDS011;68207;50.078;19.936;2023-06-24T04:18:20;6.20;;;3.70;;
78856;SDS011;68207;50.078;19.936;2023-06-24T04:20:45;4.20;;;3.60;;
78856;SDS011;68207;50.078;19.936;2023-06-24T04:23:11;5.40;;;3.50;;
78856;SDS011;68207;50.078;19.936;2023-06-24T04:25:39;5.00;;;3.80;;
78856;SDS011;68207;50.078;19.936;2023-06-24T04:28:04;5.50;;;3.90;;
78856;SDS011;68207;50.078;19.936;2023-06-24T04:30:29;5.00;;;3.70;;
78856;SDS011;68207;50.078;19.936;2023-06-24T04:32:55;4.90;;;3.70;;
78856;SDS011;68207;50.078;19.936;2023-06-24T04:35:20;7.60;;;3.90;;
78856;SDS011;68207;50.078;19.936;2023-06-24T04:37:45;5.60;;;4.00;;
78856;SDS011;68207;50.078;19.936;2023-06-24T04:40:10;7.00;;;4.40;;
78856;SDS011;68207;50.078;19.936;2023-06-24T04:42:35;5.00;;;3.90;;
78856;SDS011;68207;50.078;19.936;2023-06-24T04:45:01;7.30;;;4.20;;
78856;SDS011;68207;50.078;19.936;2023-06-24T04:47:30;7.10;;;4.30;;
78856;SDS011;68207;50.078;19.936;2023-06-24T04:49:55;5.50;;;3.80;;
78856;SDS011;68207;50.078;19.936;2023-06-24T04:52:20;4.40;;;4.00;;
78856;SDS011;68207;50.078;19.936;2023-06-24T04:54:46;4.20;;;3.30;;
78856;SDS011;68207;50.078;19.936;2023-06-24T04:57:22;5.10;;;4.10;;
78856;SDS011;68207;50.078;19.936;2023-06-24T04:59:48;5.50;;;3.80;;
78856;SDS011;68207;50.078;19.936;2023-06-24T05:02:13;6.80;;;4.00;;
78856;SDS011;68207;50.078;19.936;2023-06-24T05:04:38;5.10;;;4.30;;
78856;SDS011;68207;50.078;19.936;2023-06-24T05:07:03;7.10;;;4.10;;
78856;SDS011;68207;50.078;19.936;2023-06-24T05:09:29;7.40;;;3.80;;
78856;SDS011;68207;50.078;19.936;2023-06-24T05:11:54;6.70;;;4.40;;
78856;SDS011;68207;50.078;19.936;2023-06-24T05:14:19;6.00;;;4.20;;
78856;SDS011;68207;50.078;19.936;2023-06-24T05:16:44;5.90;;;4.10;;
78856;SDS011;68207;50.078;19.936;2023-06-24T05:19:10;5.00;;;4.30;;
78856;SDS011;68207;50.078;19.936;2023-06-24T05:21:35;6.30;;;4.20;;
78856;SDS011;68207;50.078;19.936;2023-06-24T05:24:00;6.80;;;4.20;;
78856;SDS011;68207;50.078;19.936;2023-06-24T05:26:25;7.00;;;4.20;;
78856;SDS011;68207;50.078;19.936;2023-06-24T05:28:50;5.80;;;4.50;;
78856;SDS011;68207;50.078;19.936;2023-06-24T05:31:16;8.50;;;4.50;;
78856;SDS011;68207;50.078;19.936;2023-06-24T05:33:41;7.10;;;4.60;;
78856;SDS011;68207;50.078;19.936;2023-06-24T05:36:06;8.50;;;4.50;;
78856;SDS011;68207;50.078;19.936;2023-06-24T05:38:31;5.90;;;4.80;;
78856;SDS011;68207;50.078;19.936;2023-06-24T05:40:56;5.90;;;4.40;;
78856;SDS011;68207;50.078;19.936;2023-06-24T05:43:22;5.00;;;4.00;;
78856;SDS011;68207;50.078;19.936;2023-06-24T05:45:47;5.90;;;4.70;;
78856;SDS011;68207;50.078;19.936;2023-06-24T05:48:12;7.80;;;4.80;;
78856;SDS011;68207;50.078;19.936;2023-06-24T05:50:39;6.70;;;4.80;;
78856;SDS011;68207;50.078;19.936;2023-06-24T05:53:04;6.70;;;4.50;;
78856;SDS011;68207;50.078;19.936;2023-06-24T05:55:29;9.80;;;4.90;;
78856;SDS011;68207;50.078;19.936;2023-06-24T05:57:54;7.10;;;4.40;;
78856;SDS011;68207;50.078;19.936;2023-06-24T06:00:20;8.10;;;4.40;;
78856;SDS011;68207;50.078;19.936;2023-06-24T06:02:45;6.60;;;4.90;;
78856;SDS011;68207;50.078;19.936;2023-06-24T06:05:10;7.60;;;4.70;;
78856;SDS011;68207;50.078;19.936;2023-06-24T06:07:35;9.80;;;4.70;;
78856;SDS011;68207;50.078;19.936;2023-06-24T06:10:03;6.70;;;4.80;;
78856;SDS011;68207;50.078;19.936;2023-06-24T06:12:28;7.20;;;4.90;;
78856;SDS011;68207;50.078;19.936;2023-06-24T06:14:54;6.80;;;4.90;;
78856;SDS011;68207;50.078;19.936;2023-06-24T06:17:19;6.50;;;4.40;;
78856;SDS011;68207;50.078;19.936;2023-06-24T06:19:44;6.40;;;5.30;;
78856;SDS011;68207;50.078;19.936;2023-06-24T06:22:11;7.10;;;5.20;;
78856;SDS011;68207;50.078;19.936;2023-06-24T06:24:37;8.60;;;5.40;;
78856;SDS011;68207;50.078;19.936;2023-06-24T06:27:02;7.90;;;5.60;;
78856;SDS011;68207;50.078;19.936;2023-06-24T06:29:27;11.20;;;5.80;;
78856;SDS011;68207;50.078;19.936;2023-06-24T06:31:52;8.50;;;5.20;;
78856;SDS011;68207;50.078;19.936;2023-06-24T06:34:20;7.60;;;5.50;;
78856;SDS011;68207;50.078;19.936;2023-06-24T06:36:45;7.80;;;5.80;;
78856;SDS011;68207;50.078;19.936;2023-06-24T06:39:10;9.00;;;6.60;;
78856;SDS011;68207;50.078;19.936;2023-06-24T06:41:35;11.50;;;7.10;;
78856;SDS011;68207;50.078;19.936;2023-06-24T06:44:00;9.80;;;7.50;;
78856;SDS011;68207;50.078;19.936;2023-06-24T06:46:25;9.80;;;6.50;;
78856;SDS011;68207;50.078;19.936;2023-06-24T06:48:51;8.50;;;6.60;;
78856;SDS011;68207;50.078;19.936;2023-06-24T06:51:16;9.30;;;6.50;;
78856;SDS011;68207;50.078;19.936;2023-06-24T06:53:43;12.70;;;6.70;;
78856;SDS011;68207;50.078;19.936;2023-06-24T06:56:08;12.80;;;7.40;;
78856;SDS011;68207;50.078;19.936;2023-06-24T06:58:33;12.20;;;7.70;;
78856;SDS011;68207;50.078;19.936;2023-06-24T07:00:59;11.90;;;8.20;;
78856;SDS011;68207;50.078;19.936;2023-06-24T07:03:26;17.90;;;8.30;;
78856;SDS011;68207;50.078;19.936;2023-06-24T07:05:52;15.80;;;9.10;;
78856;SDS011;68207;50.078;19.936;2023-06-24T07:08:18;18.70;;;10.20;;
78856;SDS011;68207;50.078;19.936;2023-06-24T07:10:43;17.20;;;9.90;;
78856;SDS011;68207;50.078;19.936;2023-06-24T07:13:08;17.80;;;10.40;;
78856;SDS011;68207;50.078;19.936;2023-06-24T07:15:33;20.10;;;11.40;;
78856;SDS011;68207;50.078;19.936;2023-06-24T07:17:58;15.60;;;11.20;;
78856;SDS011;68207;50.078;19.936;2023-06-24T07:20:24;26.60;;;12.30;;
78856;SDS011;68207;50.078;19.936;2023-06-24T07:22:49;20.40;;;11.60;;
78856;SDS011;68207;50.078;19.936;2023-06-24T07:25:14;24.40;;;14.10;;
78856;SDS011;68207;50.078;19.936;2023-06-24T07:27:39;23.90;;;16.50;;
78856;SDS011;68207;50.078;19.936;2023-06-24T07:30:05;26.20;;;15.80;;
78856;SDS011;68207;50.078;19.936;2023-06-24T07:32:30;26.10;;;16.30;;
78856;SDS011;68207;50.078;19.936;2023-06-24T07:34:55;21.80;;;15.60;;
78856;SDS011;68207;50.078;19.936;2023-06-24T07:37:21;22.90;;;15.80;;
78856;SDS011;68207;50.078;19.936;2023-06-24T07:39:46;21.70;;;14.40;;
78856;SDS011;68207;50.078;19.936;2023-06-24T07:42:12;22.80;;;15.00;;
78856;SDS011;68207;50.078;19.936;2023-06-24T07:44:37;19.20;;;14.60;;
78856;SDS011;68207;50.078;19.936;2023-06-24T07:47:04;20.10;;;14.00;;
78856;SDS011;68207;50.078;19.936;2023-06-24T07:49:29;17.40;;;13.50;;
78856;SDS011;68207;50.078;19.936;2023-06-24T07:51:54;15.80;;;12.50;;
78856;SDS011;68207;50.078;19.936;2023-06-24T07:54:20;18.60;;;12.80;;
78856;SDS011;68207;50.078;19.936;2023-06-24T07:56:45;18.20;;;11.30;;
78856;SDS011;68207;50.078;19.936;2023-06-24T07:59:10;17.80;;;11.40;;
78856;SDS011;68207;50.078;19.936;2023-06-24T08:01:36;13.40;;;9.20;;
78856;SDS011;68207;50.078;19.936;2023-06-24T08:04:01;11.30;;;8.60;;
78856;SDS011;68207;50.078;19.936;2023-06-24T08:06:26;11.90;;;8.10;;
78856;SDS011;68207;50.078;19.936;2023-06-24T08:08:52;13.00;;;8.10;;
78856;SDS011;68207;50.078;19.936;2023-06-24T08:11:17;10.90;;;7.70;;
78856;SDS011;68207;50.078;19.936;2023-06-24T08:13:42;14.90;;;8.60;;
78856;SDS011;68207;50.078;19.936;2023-06-24T08:16:07;15.30;;;8.00;;
78856;SDS011;68207;50.078;19.936;2023-06-24T08:18:32;9.20;;;7.50;;
78856;SDS011;68207;50.078;19.936;2023-06-24T08:20:58;11.10;;;7.20;;
78856;SDS011;68207;50.078;19.936;2023-06-24T08:23:23;9.90;;;7.50;;
78856;SDS011;68207;50.078;19.936;2023-06-24T08:25:49;9.20;;;7.10;;
78856;SDS011;68207;50.078;19.936;2023-06-24T08:28:14;9.10;;;6.70;;
78856;SDS011;68207;50.078;19.936;2023-06-24T08:30:39;12.00;;;7.20;;
78856;SDS011;68207;50.078;19.936;2023-06-24T08:33:04;10.20;;;7.20;;
78856;SDS011;68207;50.078;19.936;2023-06-24T08:35:29;11.20;;;7.10;;
78856;SDS011;68207;50.078;19.936;2023-06-24T08:37:54;11.70;;;7.00;;
78856;SDS011;68207;50.078;19.936;2023-06-24T08:40:20;10.80;;;7.70;;
78856;SDS011;68207;50.078;19.936;2023-06-24T08:42:45;10.30;;;6.90;;
78856;SDS011;68207;50.078;19.936;2023-06-24T08:45:10;8.30;;;6.40;;
78856;SDS011;68207;50.078;19.936;2023-06-24T08:47:35;8.00;;;6.50;;
78856;SDS011;68207;50.078;19.936;2023-06-24T08:50:04;9.10;;;6.80;;
78856;SDS011;68207;50.078;19.936;2023-06-24T08:52:32;9.70;;;6.80;;
78856;SDS011;68207;50.078;19.936;2023-06-24T08:54:59;10.60;;;6.70;;
78856;SDS011;68207;50.078;19.936;2023-06-24T08:57:26;8.10;;;6.70;;
78856;SDS011;68207;50.078;19.936;2023-06-24T08:59:51;12.00;;;6.60;;
78856;SDS011;68207;50.078;19.936;2023-06-24T09:07:07;9.90;;;6.40;;
78856;SDS011;68207;50.078;19.936;2023-06-24T09:09:32;8.00;;;6.40;;
78856;SDS011;68207;50.078;19.936;2023-06-24T09:12:10;7.40;;;6.00;;
78856;SDS011;68207;50.078;19.936;2023-06-24T09:14:36;8.80;;;6.20;;
78856;SDS011;68207;50.078;19.936;2023-06-24T09:17:01;8.30;;;6.00;;
78856;SDS011;68207;50.078;19.936;2023-06-24T09:19:28;9.40;;;5.90;;
78856;SDS011;68207;50.078;19.936;2023-06-24T09:21:54;9.90;;;6.60;;
78856;SDS011;68207;50.078;19.936;2023-06-24T09:24:19;7.10;;;6.00;;
78856;SDS011;68207;50.078;19.936;2023-06-24T09:26:44;8.10;;;6.50;;
78856;SDS011;68207;50.078;19.936;2023-06-24T09:29:10;12.40;;;6.30;;
78856;SDS011;68207;50.078;19.936;2023-06-24T09:34:01;10.00;;;6.00;;
78856;SDS011;68207;50.078;19.936;2023-06-24T09:36:26;11.30;;;6.10;;
78856;SDS011;68207;50.078;19.936;2023-06-24T09:38:51;7.60;;;6.00;;
78856;SDS011;68207;50.078;19.936;2023-06-24T09:41:16;10.70;;;6.40;;
78856;SDS011;68207;50.078;19.936;2023-06-24T09:43:43;7.80;;;5.70;;
78856;SDS011;68207;50.078;19.936;2023-06-24T09:46:09;8.40;;;5.80;;
78856;SDS011;68207;50.078;19.936;2023-06-24T09:48:35;8.30;;;6.20;;
78856;SDS011;68207;50.078;19.936;2023-06-24T09:51:01;8.40;;;6.10;;
78856;SDS011;68207;50.078;19.936;2023-06-24T09:53:28;8.00;;;5.80;;
78856;SDS011;68207;50.078;19.936;2023-06-24T09:55:54;9.90;;;5.60;;
78856;SDS011;68207;50.078;19.936;2023-06-24T09:58:19;9.40;;;6.30;;
78856;SDS011;68207;50.078;19.936;2023-06-24T10:00:45;10.80;;;5.80;;
78856;SDS011;68207;50.078;19.936;2023-06-24T10:03:10;7.00;;;5.90;;
78856;SDS011;68207;50.078;19.936;2023-06-24T10:05:36;10.70;;;6.20;;
78856;SDS011;68207;50.078;19.936;2023-06-24T10:08:02;9.00;;;6.10;;
78856;SDS011;68207;50.078;19.936;2023-06-24T10:10:29;8.60;;;5.80;;
78856;SDS011;68207;50.078;19.936;2023-06-24T10:12:54;8.20;;;5.40;;
78856;SDS011;68207;50.078;19.936;2023-06-24T10:15:20;9.80;;;5.90;;
78856;SDS011;68207;50.078;19.936;2023-06-24T10:17:45;7.30;;;6.10;;
78856;SDS011;68207;50.078;19.936;2023-06-24T10:20:10;6.90;;;5.80;;
78856;SDS011;68207;50.078;19.936;2023-06-24T10:22:35;9.90;;;5.70;;
78856;SDS011;68207;50.078;19.936;2023-06-24T10:25:01;7.30;;;6.10;;
78856;SDS011;68207;50.078;19.936;2023-06-24T10:27:27;6.70;;;5.90;;
78856;SDS011;68207;50.078;19.936;2023-06-24T10:29:55;9.20;;;6.00;;
78856;SDS011;68207;50.078;19.936;2023-06-24T10:32:21;7.50;;;6.00;;
78856;SDS011;68207;50.078;19.936;2023-06-24T10:34:47;9.20;;;5.80;;
78856;SDS011;68207;50.078;19.936;2023-06-24T10:37:25;8.00;;;5.80;;
78856;SDS011;68207;50.078;19.936;2023-06-24T10:39:54;7.00;;;5.70;;
78856;SDS011;68207;50.078;19.936;2023-06-24T10:44:48;7.90;;;5.40;;
78856;SDS011;68207;50.078;19.936;2023-06-24T10:47:13;8.20;;;5.60;;
78856;SDS011;68207;50.078;19.936;2023-06-24T10:49:39;8.20;;;5.80;;
78856;SDS011;68207;50.078;19.936;2023-06-24T10:52:04;10.80;;;5.70;;
78856;SDS011;68207;50.078;19.936;2023-06-24T10:54:29;9.80;;;6.20;;
78856;SDS011;68207;50.078;19.936;2023-06-24T10:56:54;7.90;;;5.80;;
78856;SDS011;68207;50.078;19.936;2023-06-24T10:59:20;8.70;;;5.70;;
78856;SDS011;68207;50.078;19.936;2023-06-24T11:01:54;6.60;;;5.90;;
78856;SDS011;68207;50.078;19.936;2023-06-24T11:04:20;6.20;;;5.40;;
78856;SDS011;68207;50.078;19.936;2023-06-24T11:07:00;7.60;;;5.80;;
78856;SDS011;68207;50.078;19.936;2023-06-24T11:09:26;8.40;;;5.90;;
78856;SDS011;68207;50.078;19.936;2023-06-24T11:11:51;10.80;;;6.30;;
78856;SDS011;68207;50.078;19.936;2023-06-24T11:14:17;9.10;;;6.60;;
78856;SDS011;68207;50.078;19.936;2023-06-24T11:16:42;8.60;;;6.70;;
78856;SDS011;68207;50.078;19.936;2023-06-24T11:19:08;9.00;;;6.00;;
78856;SDS011;68207;50.078;19.936;2023-06-24T11:21:33;9.20;;;7.10;;
78856;SDS011;68207;50.078;19.936;2023-06-24T11:24:04;8.90;;;6.20;;
78856;SDS011;68207;50.078;19.936;2023-06-24T11:26:30;10.40;;;7.10;;
78856;SDS011;68207;50.078;19.936;2023-06-24T11:28:55;8.10;;;6.60;;
78856;SDS011;68207;50.078;19.936;2023-06-24T11:31:26;8.60;;;6.30;;
78856;SDS011;68207;50.078;19.936;2023-06-24T11:33:52;8.20;;;6.60;;
78856;SDS011;68207;50.078;19.936;2023-06-24T11:36:20;9.40;;;6.90;;
78856;SDS011;68207;50.078;19.936;2023-06-24T11:38:45;9.90;;;7.30;;
78856;SDS011;68207;50.078;19.936;2023-06-24T11:41:11;9.30;;;7.10;;
78856;SDS011;68207;50.078;19.936;2023-06-24T11:43:36;8.20;;;6.60;;
78856;SDS011;68207;50.078;19.936;2023-06-24T11:46:01;13.10;;;7.20;;
78856;SDS011;68207;50.078;19.936;2023-06-24T11:48:29;12.00;;;7.70;;
78856;SDS011;68207;50.078;19.936;2023-06-24T11:50:55;10.10;;;6.10;;
78856;SDS011;68207;50.078;19.936;2023-06-24T11:53:30;7.70;;;6.70;;
78856;SDS011;68207;50.078;19.936;2023-06-24T11:55:56;8.00;;;6.40;;
78856;SDS011;68207;50.078;19.936;2023-06-24T11:58:21;7.70;;;6.40;;
78856;SDS011;68207;50.078;19.936;2023-06-24T12:00:48;11.40;;;6.70;;
78856;SDS011;68207;50.078;19.936;2023-06-24T12:03:13;12.50;;;6.70;;
78856;SDS011;68207;50.078;19.936;2023-06-24T12:05:39;7.90;;;6.50;;
78856;SDS011;68207;50.078;19.936;2023-06-24T12:08:10;8.40;;;6.30;;
78856;SDS011;68207;50.078;19.936;2023-06-24T12:10:36;9.50;;;6.70;;
78856;SDS011;68207;50.078;19.936;2023-06-24T12:13:02;8.50;;;6.00;;
78856;SDS011;68207;50.078;19.936;2023-06-24T12:15:28;8.30;;;5.60;;
78856;SDS011;68207;50.078;19.936;2023-06-24T12:17:53;7.70;;;5.80;;
78856;SDS011;68207;50.078;19.936;2023-06-24T12:20:19;8.40;;;5.20;;
78856;SDS011;68207;50.078;19.936;2023-06-24T12:22:45;8.20;;;5.30;;
78856;SDS011;68207;50.078;19.936;2023-06-24T12:27:35;8.60;;;5.00;;
78856;SDS011;68207;50.078;19.936;2023-06-24T12:30:01;8.30;;;5.00;;
78856;SDS011;68207;50.078;19.936;2023-06-24T12:32:26;6.90;;;4.70;;
78856;SDS011;68207;50.078;19.936;2023-06-24T12:34:52;5.70;;;4.30;;
78856;SDS011;68207;50.078;19.936;2023-06-24T12:37:17;8.50;;;4.10;;
78856;SDS011;68207;50.078;19.936;2023-06-24T12:39:42;6.80;;;4.80;;
78856;SDS011;68207;50.078;19.936;2023-06-24T12:42:08;5.60;;;4.30;;
78856;SDS011;68207;50.078;19.936;2023-06-24T12:44:33;6.20;;;4.60;;
78856;SDS011;68207;50.078;19.936;2023-06-24T12:46:58;6.10;;;4.60;;
78856;SDS011;68207;50.078;19.936;2023-06-24T12:49:23;9.80;;;4.50;;
78856;SDS011;68207;50.078;19.936;2023-06-24T12:51:48;6.10;;;4.40;;
78856;SDS011;68207;50.078;19.936;2023-06-24T12:54:14;6.10;;;4.30;;
78856;SDS011;68207;50.078;19.936;2023-06-24T12:56:39;5.70;;;4.50;;
78856;SDS011;68207;50.078;19.936;2023-06-24T12:59:04;6.10;;;4.80;;
78856;SDS011;68207;50.078;19.936;2023-06-24T13:01:30;8.40;;;5.00;;
78856;SDS011;68207;50.078;19.936;2023-06-24T13:03:56;8.90;;;5.10;;
78856;SDS011;68207;50.078;19.936;2023-06-24T13:06:21;8.30;;;5.20;;
78856;SDS011;68207;50.078;19.936;2023-06-24T13:08:47;6.70;;;4.90;;
78856;SDS011;68207;50.078;19.936;2023-06-24T13:11:13;6.60;;;4.90;;
78856;SDS011;68207;50.078;19.936;2023-06-24T13:13:38;6.60;;;5.30;;
78856;SDS011;68207;50.078;19.936;2023-06-24T13:16:03;6.90;;;4.90;;
78856;SDS011;68207;50.078;19.936;2023-06-24T13:18:28;6.80;;;4.80;;
78856;SDS011;68207;50.078;19.936;2023-06-24T13:20:53;5.70;;;4.70;;
78856;SDS011;68207;50.078;19.936;2023-06-24T13:23:18;6.60;;;4.70;;
78856;SDS011;68207;50.078;19.936;2023-06-24T13:25:44;7.70;;;4.90;;
78856;SDS011;68207;50.078;19.936;2023-06-24T13:28:09;7.50;;;5.20;;
78856;SDS011;68207;50.078;19.936;2023-06-24T13:30:34;9.80;;;5.30;;
78856;SDS011;68207;50.078;19.936;2023-06-24T13:32:59;7.10;;;5.70;;
78856;SDS011;68207;50.078;19.936;2023-06-24T13:35:24;9.00;;;5.40;;
78856;SDS011;68207;50.078;19.936;2023-06-24T13:37:50;11.50;;;8.00;;
78856;SDS011;68207;50.078;19.936;2023-06-24T13:40:15;9.70;;;6.80;;
78856;SDS011;68207;50.078;19.936;2023-06-24T13:42:40;7.80;;;6.40;;
78856;SDS011;68207;50.078;19.936;2023-06-24T13:45:05;9.00;;;6.20;;
78856;SDS011;68207;50.078;19.936;2023-06-24T13:47:31;8.90;;;6.10;;
78856;SDS011;68207;50.078;19.936;2023-06-24T13:49:56;7.80;;;5.30;;
78856;SDS011;68207;50.078;19.936;2023-06-24T13:52:23;7.00;;;5.80;;
78856;SDS011;68207;50.078;19.936;2023-06-24T13:54:49;8.30;;;5.40;;
78856;SDS011;68207;50.078;19.936;2023-06-24T13:57:14;7.70;;;5.50;;
78856;SDS011;68207;50.078;19.936;2023-06-24T13:59:40;10.60;;;6.30;;
78856;SDS011;68207;50.078;19.936;2023-06-24T14:02:06;7.50;;;5.60;;
78856;SDS011;68207;50.078;19.936;2023-06-24T14:04:32;7.90;;;5.60;;
78856;SDS011;68207;50.078;19.936;2023-06-24T14:06:58;8.50;;;6.00;;
78856;SDS011;68207;50.078;19.936;2023-06-24T14:09:23;8.00;;;5.80;;
78856;SDS011;68207;50.078;19.936;2023-06-24T14:11:48;7.10;;;5.60;;
78856;SDS011;68207;50.078;19.936;2023-06-24T14:14:13;9.20;;;6.20;;
78856;SDS011;68207;50.078;19.936;2023-06-24T14:16:38;7.80;;;5.90;;
78856;SDS011;68207;50.078;19.936;2023-06-24T14:19:04;7.40;;;5.70;;
78856;SDS011;68207;50.078;19.936;2023-06-24T14:21:29;9.70;;;5.90;;
78856;SDS011;68207;50.078;19.936;2023-06-24T14:23:56;7.10;;;6.10;;
78856;SDS011;68207;50.078;19.936;2023-06-24T14:26:21;9.40;;;6.50;;
78856;SDS011;68207;50.078;19.936;2023-06-24T14:28:46;10.60;;;6.30;;
78856;SDS011;68207;50.078;19.936;2023-06-24T14:31:12;8.90;;;6.20;;
78856;SDS011;68207;50.078;19.936;2023-06-24T14:33:37;7.00;;;5.60;;
78856;SDS011;68207;50.078;19.936;2023-06-24T14:36:02;7.30;;;6.00;;
78856;SDS011;68207;50.078;19.936;2023-06-24T14:38:27;7.50;;;6.10;;
78856;SDS011;68207;50.078;19.936;2023-06-24T14:40:52;8.30;;;6.00;;
78856;SDS011;68207;50.078;19.936;2023-06-24T14:43:18;7.10;;;5.90;;
78856;SDS011;68207;50.078;19.936;2023-06-24T14:45:43;8.20;;;6.40;;
78856;SDS011;68207;50.078;19.936;2023-06-24T14:48:09;7.30;;;6.30;;
78856;SDS011;68207;50.078;19.936;2023-06-24T14:50:34;10.20;;;6.30;;
78856;SDS011;68207;50.078;19.936;2023-06-24T14:52:59;7.70;;;6.00;;
78856;SDS011;68207;50.078;19.936;2023-06-24T14:55:24;9.20;;;6.10;;
78856;SDS011;68207;50.078;19.936;2023-06-24T14:57:49;7.90;;;7.00;;
78856;SDS011;68207;50.078;19.936;2023-06-24T15:00:15;9.60;;;7.00;;
78856;SDS011;68207;50.078;19.936;2023-06-24T15:02:40;10.10;;;7.30;;
78856;SDS011;68207;50.078;19.936;2023-06-24T15:05:05;9.60;;;6.90;;
78856;SDS011;68207;50.078;19.936;2023-06-24T15:07:30;8.60;;;7.30;;
78856;SDS011;68207;50.078;19.936;2023-06-24T15:09:56;8.00;;;6.70;;